createdAt,value
2016-08-26T00:00:36.523Z,1006.21
2016-08-26T00:01:36.551Z,1006.22
2016-08-26T00:02:36.580Z,1006.19
2016-08-26T00:03:36.608Z,1006.2
2016-08-26T00:04:36.635Z,1006.1
2016-08-26T00:05:36.664Z,1006.16
2016-08-26T00:06:36.693Z,1006.08
2016-08-26T00:07:36.720Z,1006.07
2016-08-26T00:08:36.746Z,1006.06
2016-08-26T00:09:36.775Z,1006.07
2016-08-26T00:10:36.802Z,1006.04
2016-08-26T00:11:36.831Z,1006.06
2016-08-26T00:12:36.858Z,1006
2016-08-26T00:13:36.885Z,1006.01
2016-08-26T00:14:36.915Z,1005.99
2016-08-26T00:15:36.942Z,1006
2016-08-26T00:16:36.969Z,1005.99
2016-08-26T00:17:36.997Z,1005.99
2016-08-26T00:18:37.024Z,1005.95
2016-08-26T00:19:37.053Z,1005.96
2016-08-26T00:20:37.082Z,1005.97
2016-08-26T00:21:37.109Z,1005.97
2016-08-26T00:22:40.171Z,1005.96
2016-08-26T00:23:37.165Z,1005.99
2016-08-26T00:24:37.192Z,1006.02
2016-08-26T00:25:37.220Z,1006
2016-08-26T00:26:37.249Z,1006.01
2016-08-26T00:27:37.277Z,1005.99
2016-08-26T00:28:37.304Z,1006
2016-08-26T00:29:37.334Z,1006.06
2016-08-26T00:30:37.359Z,1006.07
2016-08-26T00:31:37.387Z,1006.05
2016-08-26T00:32:37.416Z,1006.07
2016-08-26T00:33:37.444Z,1006.05
2016-08-26T00:34:37.470Z,1006.05
2016-08-26T00:35:37.497Z,1006.04
2016-08-26T00:36:37.523Z,1006.04
2016-08-26T00:37:37.553Z,1006.04
2016-08-26T00:38:37.579Z,1006.02
2016-08-26T00:39:37.607Z,1005.99
2016-08-26T00:40:37.634Z,1006.01
2016-08-26T00:41:37.661Z,1005.99
2016-08-26T00:42:37.690Z,1005.99
2016-08-26T00:43:37.717Z,1005.96
2016-08-26T00:44:37.745Z,1005.95
2016-08-26T00:45:37.773Z,1005.94
2016-08-26T00:46:37.799Z,1005.96
2016-08-26T00:47:37.826Z,1005.92
2016-08-26T00:48:37.854Z,1005.95
2016-08-26T00:49:37.881Z,1005.92
2016-08-26T00:50:37.913Z,1005.92
2016-08-26T00:51:37.935Z,1005.94
2016-08-26T00:52:37.963Z,1005.91
2016-08-26T00:53:37.991Z,1005.95
2016-08-26T00:54:38.020Z,1005.94
2016-08-26T00:55:38.045Z,1005.94
2016-08-26T00:56:38.072Z,1005.96
2016-08-26T00:57:38.100Z,1005.96
2016-08-26T00:58:38.128Z,1005.96
2016-08-26T00:59:38.155Z,1005.94
2016-08-26T01:00:38.182Z,1005.95
2016-08-26T01:01:38.209Z,1005.96
2016-08-26T01:02:38.236Z,1005.96
2016-08-26T01:03:38.264Z,1005.95
2016-08-26T01:04:38.292Z,1005.93
2016-08-26T01:05:38.319Z,1005.93
2016-08-26T01:06:38.345Z,1005.95
2016-08-26T01:07:38.375Z,1005.94
2016-08-26T01:08:38.400Z,1005.97
2016-08-26T01:09:38.426Z,1005.93
2016-08-26T01:10:38.454Z,1005.92
2016-08-26T01:11:38.481Z,1005.92
2016-08-26T01:12:38.509Z,1005.94
2016-08-26T01:13:38.535Z,1005.92
2016-08-26T01:14:38.562Z,1006.01
2016-08-26T01:15:38.590Z,1005.99
2016-08-26T01:16:38.617Z,1006
2016-08-26T01:17:38.643Z,1005.96
2016-08-26T01:18:38.670Z,1006
2016-08-26T01:19:38.697Z,1006
2016-08-26T01:20:38.724Z,1005.99
2016-08-26T01:21:38.751Z,1005.98
2016-08-26T01:22:38.780Z,1005.98
2016-08-26T01:23:38.806Z,1006
2016-08-26T01:24:38.832Z,1006
2016-08-26T01:25:38.859Z,1006.01
2016-08-26T01:26:38.887Z,1005.99
2016-08-26T01:27:38.914Z,1005.98
2016-08-26T01:28:38.939Z,1005.93
2016-08-26T01:29:38.968Z,1005.97
2016-08-26T01:30:38.995Z,1005.92
2016-08-26T01:31:39.020Z,1005.93
2016-08-26T01:32:39.047Z,1005.94
2016-08-26T01:33:39.074Z,1005.94
2016-08-26T01:34:39.101Z,1005.96
2016-08-26T01:35:39.127Z,1005.94
2016-08-26T01:36:39.154Z,1005.93
2016-08-26T01:37:39.181Z,1005.94
2016-08-26T01:38:39.209Z,1005.92
2016-08-26T01:39:39.235Z,1005.88
2016-08-26T01:40:39.261Z,1005.88
2016-08-26T01:41:39.287Z,1005.9
2016-08-26T01:42:39.314Z,1005.89
2016-08-26T01:43:39.342Z,1005.85
2016-08-26T01:44:39.368Z,1005.85
2016-08-26T01:45:39.395Z,1005.86
2016-08-26T01:46:39.420Z,1005.87
2016-08-26T01:47:39.448Z,1005.91
2016-08-26T01:48:39.476Z,1005.9
2016-08-26T01:49:39.502Z,1005.9
2016-08-26T01:50:39.528Z,1005.94
2016-08-26T01:51:39.554Z,1005.9
2016-08-26T01:52:39.581Z,1005.88
2016-08-26T01:53:39.607Z,1005.88
2016-08-26T01:54:39.635Z,1005.97
2016-08-26T01:55:39.661Z,1005.98
2016-08-26T01:56:39.687Z,1005.97
2016-08-26T01:57:39.714Z,1005.93
2016-08-26T01:58:39.740Z,1005.96
2016-08-26T01:59:39.767Z,1005.97
2016-08-26T02:00:39.794Z,1005.97
2016-08-26T02:01:39.821Z,1005.94
2016-08-26T02:02:39.848Z,1005.96
2016-08-26T02:03:39.876Z,1005.96
2016-08-26T02:04:39.902Z,1005.92
2016-08-26T02:05:39.927Z,1005.92
2016-08-26T02:06:39.952Z,1005.95
2016-08-26T02:07:39.980Z,1005.95
2016-08-26T02:08:40.006Z,1005.92
2016-08-26T02:09:40.033Z,1005.95
2016-08-26T02:10:40.060Z,1005.95
2016-08-26T02:11:40.084Z,1005.92
2016-08-26T02:12:40.111Z,1005.87
2016-08-26T02:13:40.138Z,1005.92
2016-08-26T02:14:40.170Z,1005.87
2016-08-26T02:15:40.190Z,1005.87
2016-08-26T02:16:40.216Z,1005.85
2016-08-26T02:17:40.243Z,1005.82
2016-08-26T02:18:40.270Z,1005.84
2016-08-26T02:19:40.296Z,1005.85
2016-08-26T02:20:40.321Z,1005.85
2016-08-26T02:21:40.348Z,1005.86
2016-08-26T02:22:40.374Z,1005.84
2016-08-26T02:23:40.401Z,1005.83
2016-08-26T02:24:40.427Z,1005.83
2016-08-26T02:25:40.461Z,1005.88
2016-08-26T02:26:40.478Z,1005.85
2016-08-26T02:27:40.506Z,1005.84
2016-08-26T02:28:40.532Z,1005.86
2016-08-26T02:29:40.558Z,1005.86
2016-08-26T02:30:40.584Z,1005.85
2016-08-26T02:31:40.609Z,1005.82
2016-08-26T02:32:40.637Z,1005.82
2016-08-26T02:33:40.662Z,1005.82
2016-08-26T02:34:40.690Z,1005.81
2016-08-26T02:35:40.715Z,1005.81
2016-08-26T02:36:40.740Z,1005.85
2016-08-26T02:37:40.767Z,1005.84
2016-08-26T02:38:40.792Z,1005.83
2016-08-26T02:39:40.819Z,1005.82
2016-08-26T02:40:40.845Z,1005.85
2016-08-26T02:41:40.870Z,1005.8
2016-08-26T02:42:40.897Z,1005.79
2016-08-26T02:43:40.923Z,1005.83
2016-08-26T02:44:40.949Z,1005.83
2016-08-26T02:45:40.975Z,1005.82
2016-08-26T02:46:41.000Z,1005.84
2016-08-26T02:47:41.028Z,1005.78
2016-08-26T02:48:41.054Z,1005.79
2016-08-26T02:49:41.078Z,1005.78
2016-08-26T02:50:41.105Z,1005.8
2016-08-26T02:51:41.131Z,1005.8
2016-08-26T02:52:41.157Z,1005.8
2016-08-26T02:53:41.184Z,1005.79
2016-08-26T02:54:41.209Z,1005.8
2016-08-26T02:55:41.234Z,1005.8
2016-08-26T02:56:41.259Z,1005.79
2016-08-26T02:57:41.286Z,1005.83
2016-08-26T02:58:41.312Z,1005.77
2016-08-26T02:59:41.337Z,1005.82
2016-08-26T03:00:41.365Z,1005.85
2016-08-26T03:01:41.389Z,1005.84
2016-08-26T03:02:41.416Z,1005.85
2016-08-26T03:03:41.440Z,1005.84
2016-08-26T03:04:41.468Z,1005.85
2016-08-26T03:05:41.494Z,1005.86
2016-08-26T03:06:41.518Z,1005.86
2016-08-26T03:07:41.544Z,1005.88
2016-08-26T03:08:41.570Z,1005.85
2016-08-26T03:09:41.598Z,1005.85
2016-08-26T03:10:41.622Z,1005.82
2016-08-26T03:11:41.648Z,1005.85
2016-08-26T03:12:41.673Z,1005.82
2016-08-26T03:13:41.700Z,1005.84
2016-08-26T03:14:41.725Z,1005.79
2016-08-26T03:15:41.749Z,1005.81
2016-08-26T03:16:41.776Z,1005.84
2016-08-26T03:17:41.801Z,1005.78
2016-08-26T03:18:41.827Z,1005.78
2016-08-26T03:19:41.853Z,1005.81
2016-08-26T03:20:41.883Z,1005.77
2016-08-26T03:21:41.903Z,1005.8
2016-08-26T03:22:41.929Z,1005.8
2016-08-26T03:23:41.954Z,1005.79
2016-08-26T03:24:41.981Z,1005.78
2016-08-26T03:25:42.005Z,1005.79
2016-08-26T03:26:42.031Z,1005.82
2016-08-26T03:27:42.057Z,1005.82
2016-08-26T03:28:42.081Z,1005.78
2016-08-26T03:29:42.108Z,1005.81
2016-08-26T03:30:42.134Z,1005.82
2016-08-26T03:31:42.159Z,1005.79
2016-08-26T03:32:42.184Z,1005.82
2016-08-26T03:33:42.210Z,1005.86
2016-08-26T03:34:42.236Z,1005.87
2016-08-26T03:35:42.262Z,1005.88
2016-08-26T03:36:42.287Z,1005.91
2016-08-26T03:37:42.313Z,1005.91
2016-08-26T03:38:42.339Z,1005.89
2016-08-26T03:39:42.363Z,1005.89
2016-08-26T03:40:42.390Z,1005.89
2016-08-26T03:41:42.414Z,1005.89
2016-08-26T03:42:42.447Z,1005.88
2016-08-26T03:43:42.464Z,1005.89
2016-08-26T03:44:42.491Z,1005.89
2016-08-26T03:45:42.516Z,1005.9
2016-08-26T03:46:42.541Z,1005.87
2016-08-26T03:47:42.566Z,1005.88
2016-08-26T03:48:42.591Z,1005.89
2016-08-26T03:49:42.618Z,1005.92
2016-08-26T03:50:42.642Z,1005.92
2016-08-26T03:51:42.668Z,1005.92
2016-08-26T03:52:42.693Z,1005.93
2016-08-26T03:53:42.719Z,1005.96
2016-08-26T03:54:42.743Z,1005.98
2016-08-26T03:55:42.768Z,1006
2016-08-26T03:56:42.794Z,1005.99
2016-08-26T03:57:42.818Z,1006
2016-08-26T03:58:42.845Z,1006.03
2016-08-26T03:59:42.873Z,1006.01
2016-08-26T04:00:42.896Z,1006.01
2016-08-26T04:01:43.030Z,1006.03
2016-08-26T04:02:43.040Z,1006.01
2016-08-26T04:03:43.071Z,1006.01
2016-08-26T04:04:43.081Z,1006
2016-08-26T04:05:43.091Z,1005.99
2016-08-26T04:06:43.089Z,1006.01
2016-08-26T04:07:43.097Z,1005.99
2016-08-26T04:08:43.167Z,1005.99
2016-08-26T04:09:43.175Z,1005.97
2016-08-26T04:10:43.173Z,1005.96
2016-08-26T04:11:43.181Z,1005.96
2016-08-26T04:12:43.197Z,1005.95
2016-08-26T04:13:43.318Z,1005.94
2016-08-26T04:14:43.328Z,1005.99
2016-08-26T04:15:43.348Z,1005.95
2016-08-26T04:16:43.356Z,1005.95
2016-08-26T04:17:43.365Z,1005.95
2016-08-26T04:18:43.375Z,1005.97
2016-08-26T04:19:43.383Z,1005.98
2016-08-26T04:20:43.399Z,1005.98
2016-08-26T04:21:43.423Z,1005.96
2016-08-26T04:22:43.448Z,1005.99
2016-08-26T04:23:43.473Z,1006
2016-08-26T04:24:43.499Z,1005.96
2016-08-26T04:25:43.523Z,1005.94
2016-08-26T04:26:43.549Z,1005.98
2016-08-26T04:27:43.572Z,1005.94
2016-08-26T04:28:43.601Z,1005.94
2016-08-26T04:29:43.624Z,1005.94
2016-08-26T04:30:43.647Z,1005.95
2016-08-26T04:31:43.672Z,1005.96
2016-08-26T04:32:43.699Z,1006
2016-08-26T04:33:43.723Z,1006.03
2016-08-26T04:34:43.748Z,1006.03
2016-08-26T04:35:43.772Z,1006.03
2016-08-26T04:36:43.799Z,1006.05
2016-08-26T04:37:43.823Z,1006.1
2016-08-26T04:38:43.848Z,1006.02
2016-08-26T04:39:43.873Z,1006.02
2016-08-26T04:40:43.898Z,1006.02
2016-08-26T04:41:43.922Z,1006.04
2016-08-26T04:42:43.947Z,1006.06
2016-08-26T04:43:43.971Z,1006.05
2016-08-26T04:44:43.999Z,1006.06
2016-08-26T04:45:44.022Z,1006.04
2016-08-26T04:46:44.048Z,1006.09
2016-08-26T04:47:44.073Z,1006.07
2016-08-26T04:48:44.096Z,1006.05
2016-08-26T04:49:44.122Z,1006.06
2016-08-26T04:50:44.146Z,1006.04
2016-08-26T04:51:44.176Z,1006.08
2016-08-26T04:52:44.196Z,1006.03
2016-08-26T04:53:44.310Z,1006.05
2016-08-26T04:54:44.336Z,1006.12
2016-08-26T04:55:44.343Z,1006.12
2016-08-26T04:56:44.294Z,1006.13
2016-08-26T04:57:44.319Z,1006.15
2016-08-26T04:58:44.346Z,1006.17
2016-08-26T04:59:44.370Z,1006.13
2016-08-26T05:00:44.394Z,1006.16
2016-08-26T05:01:44.420Z,1006.14
2016-08-26T05:02:44.444Z,1006.17
2016-08-26T05:03:44.468Z,1006.18
2016-08-26T05:04:44.494Z,1006.15
2016-08-26T05:05:44.532Z,1006.17
2016-08-26T05:06:44.750Z,1006.19
2016-08-26T05:07:44.567Z,1006.19
2016-08-26T05:08:44.593Z,1006.23
2016-08-26T05:09:44.625Z,1006.21
2016-08-26T05:10:44.674Z,1006.23
2016-08-26T05:11:44.667Z,1006.24
2016-08-26T05:12:44.691Z,1006.27
2016-08-26T05:13:44.720Z,1006.26
2016-08-26T05:14:44.740Z,1006.29
2016-08-26T05:15:44.766Z,1006.27
2016-08-26T05:16:44.791Z,1006.27
2016-08-26T05:17:44.815Z,1006.29
2016-08-26T05:18:44.841Z,1006.26
2016-08-26T05:19:44.868Z,1006.26
2016-08-26T05:20:44.889Z,1006.24
2016-08-26T05:21:44.914Z,1006.23
2016-08-26T05:22:44.941Z,1006.28
2016-08-26T05:23:44.963Z,1006.25
2016-08-26T05:24:44.988Z,1006.22
2016-08-26T05:25:45.011Z,1006.25
2016-08-26T05:26:45.041Z,1006.26
2016-08-26T05:27:45.062Z,1006.28
2016-08-26T05:28:45.087Z,1006.27
2016-08-26T05:29:45.111Z,1006.28
2016-08-26T05:30:45.135Z,1006.24
2016-08-26T05:31:45.161Z,1006.26
2016-08-26T05:32:45.183Z,1006.24
2016-08-26T05:33:45.209Z,1006.27
2016-08-26T05:34:45.233Z,1006.26
2016-08-26T05:35:45.259Z,1006.26
2016-08-26T05:36:45.283Z,1006.28
2016-08-26T05:37:45.308Z,1006.24
2016-08-26T05:38:45.332Z,1006.26
2016-08-26T05:39:45.357Z,1006.28
2016-08-26T05:40:45.400Z,1006.25
2016-08-26T05:41:45.428Z,1006.29
2016-08-26T05:42:45.443Z,1006.28
2016-08-26T05:43:45.454Z,1006.27
2016-08-26T05:44:45.479Z,1006.35
2016-08-26T05:45:45.512Z,1006.32
2016-08-26T05:46:45.529Z,1006.27
2016-08-26T05:47:45.552Z,1006.32
2016-08-26T05:48:45.578Z,1006.29
2016-08-26T05:49:45.601Z,1006.28
2016-08-26T05:50:45.626Z,1006.25
2016-08-26T05:51:45.650Z,1006.23
2016-08-26T05:52:45.675Z,1006.25
2016-08-26T05:53:45.699Z,1006.22
2016-08-26T05:54:45.726Z,1006.2
2016-08-26T05:55:45.748Z,1006.24
2016-08-26T05:56:45.772Z,1006.23
2016-08-26T05:57:45.797Z,1006.24
2016-08-26T05:58:45.821Z,1006.21
2016-08-26T05:59:45.848Z,1006.24
2016-08-26T06:00:45.870Z,1006.22
2016-08-26T06:01:45.895Z,1006.26
2016-08-26T06:02:45.919Z,1006.22
2016-08-26T06:03:45.944Z,1006.24
2016-08-26T06:04:45.968Z,1006.24
2016-08-26T06:05:45.999Z,1006.25
2016-08-26T06:06:46.023Z,1006.22
2016-08-26T06:07:46.042Z,1006.23
2016-08-26T06:08:46.067Z,1006.21
2016-08-26T06:09:46.091Z,1006.21
2016-08-26T06:10:46.116Z,1006.24
2016-08-26T06:11:46.140Z,1006.2
2016-08-26T06:12:46.166Z,1006.21
2016-08-26T06:13:46.189Z,1006.18
2016-08-26T06:14:46.214Z,1006.19
2016-08-26T06:15:46.239Z,1006.15
2016-08-26T06:16:46.262Z,1006.17
2016-08-26T06:17:46.288Z,1006.12
2016-08-26T06:18:46.312Z,1006.14
2016-08-26T06:19:46.337Z,1006.15
2016-08-26T06:20:46.361Z,1006.14
2016-08-26T06:21:46.391Z,1006.15
2016-08-26T06:22:46.411Z,1006.13
2016-08-26T06:23:46.436Z,1006.11
2016-08-26T06:24:46.465Z,1006.08
2016-08-26T06:25:46.484Z,1006.08
2016-08-26T06:26:46.510Z,1006.06
2016-08-26T06:27:46.536Z,1006.07
2016-08-26T06:28:46.558Z,1006.05
2016-08-26T06:29:46.583Z,1006.01
2016-08-26T06:30:46.608Z,1006.05
2016-08-26T06:31:46.631Z,1006.06
2016-08-26T06:32:46.657Z,1006.07
2016-08-26T06:33:46.681Z,1006.06
2016-08-26T06:34:46.720Z,1006.07
2016-08-26T06:35:46.737Z,1006.08
2016-08-26T06:36:46.757Z,1006.05
2016-08-26T06:37:46.780Z,1006.07
2016-08-26T06:38:46.805Z,1006.08
2016-08-26T06:39:46.917Z,1006.02
2016-08-26T06:40:46.856Z,1006.07
2016-08-26T06:41:46.879Z,1006.08
2016-08-26T06:42:46.904Z,1006.06
2016-08-26T06:43:46.929Z,1006.11
2016-08-26T06:44:46.956Z,1006.07
2016-08-26T06:45:46.978Z,1006.08
2016-08-26T06:46:47.004Z,1006.09
2016-08-26T06:47:47.029Z,1006.07
2016-08-26T06:48:47.054Z,1006.09
2016-08-26T06:49:47.080Z,1006.09
2016-08-26T06:50:47.103Z,1006.06
2016-08-26T06:51:47.129Z,1006.09
2016-08-26T06:52:47.155Z,1006.1
2016-08-26T06:53:47.178Z,1006.1
2016-08-26T06:54:47.202Z,1006.11
2016-08-26T06:55:47.229Z,1006.14
2016-08-26T06:56:47.251Z,1006.12
2016-08-26T06:57:47.278Z,1006.13
2016-08-26T06:58:47.302Z,1006.12
2016-08-26T06:59:47.328Z,1006.1
2016-08-26T07:00:47.352Z,1006.14
2016-08-26T07:01:47.378Z,1006.1
2016-08-26T07:02:47.402Z,1006.15
2016-08-26T07:03:47.428Z,1006.13
2016-08-26T07:04:47.453Z,1006.13
2016-08-26T07:05:47.477Z,1006.18
2016-08-26T07:06:47.505Z,1006.14
2016-08-26T07:07:47.529Z,1006.13
2016-08-26T07:08:47.552Z,1006.17
2016-08-26T07:09:47.578Z,1006.14
2016-08-26T07:10:47.604Z,1006.16
2016-08-26T07:11:47.628Z,1006.17
2016-08-26T07:12:47.656Z,1006.13
2016-08-26T07:13:47.679Z,1006.15
2016-08-26T07:14:47.705Z,1006.16
2016-08-26T07:15:47.732Z,1006.13
2016-08-26T07:16:47.757Z,1006.15
2016-08-26T07:17:47.780Z,1006.18
2016-08-26T07:18:47.806Z,1006.16
2016-08-26T07:19:47.831Z,1006.15
2016-08-26T07:20:47.857Z,1006.15
2016-08-26T07:21:47.883Z,1006.15
2016-08-26T07:22:47.907Z,1006.16
2016-08-26T07:23:47.935Z,1006.18
2016-08-26T07:24:47.959Z,1006.2
2016-08-26T07:25:47.984Z,1006.22
2016-08-26T07:26:48.010Z,1006.19
2016-08-26T07:27:48.036Z,1006.24
2016-08-26T07:28:48.061Z,1006.23
2016-08-26T07:29:48.085Z,1006.24
2016-08-26T07:30:48.266Z,1006.22
2016-08-26T07:31:48.141Z,1006.25
2016-08-26T07:32:48.163Z,1006.23
2016-08-26T07:33:48.190Z,1006.23
2016-08-26T07:34:48.213Z,1006.25
2016-08-26T07:35:48.244Z,1006.26
2016-08-26T07:36:48.266Z,1006.24
2016-08-26T07:37:48.292Z,1006.18
2016-08-26T07:38:48.317Z,1006.2
2016-08-26T07:39:48.346Z,1006.19
2016-08-26T07:40:48.368Z,1006.16
2016-08-26T07:41:48.396Z,1006.15
2016-08-26T07:42:48.423Z,1006.18
2016-08-26T07:43:48.451Z,1006.15
2016-08-26T07:44:48.509Z,1006.13
2016-08-26T07:45:48.534Z,1006.14
2016-08-26T07:46:48.546Z,1006.15
2016-08-26T07:47:48.552Z,1006.14
2016-08-26T07:48:48.577Z,1006.19
2016-08-26T07:49:48.625Z,1006.15
2016-08-26T07:50:48.629Z,1006.17
2016-08-26T07:51:48.670Z,1006.2
2016-08-26T07:52:48.682Z,1006.18
2016-08-26T07:53:48.716Z,1006.15
2016-08-26T07:54:48.735Z,1006.21
2016-08-26T07:55:48.760Z,1006.17
2016-08-26T07:56:48.787Z,1006.17
2016-08-26T07:57:48.814Z,1006.19
2016-08-26T07:58:48.946Z,1006.15
2016-08-26T07:59:48.954Z,1006.24
2016-08-26T08:00:48.893Z,1006.18
2016-08-26T08:01:48.920Z,1006.21
2016-08-26T08:02:48.945Z,1006.16
2016-08-26T08:03:48.975Z,1006.24
2016-08-26T08:04:48.999Z,1006.16
2016-08-26T08:05:49.026Z,1006.19
2016-08-26T08:06:49.052Z,1006.16
2016-08-26T08:07:49.079Z,1006.2
2016-08-26T08:08:49.112Z,1006.18
2016-08-26T08:09:49.134Z,1006.24
2016-08-26T08:10:49.160Z,1006.24
2016-08-26T08:11:49.186Z,1006.19
2016-08-26T08:12:49.215Z,1006.25
2016-08-26T08:13:49.238Z,1006.23
2016-08-26T08:14:49.265Z,1006.2
2016-08-26T08:15:49.296Z,1006.19
2016-08-26T08:16:49.322Z,1006.19
2016-08-26T08:17:49.351Z,1006.23
2016-08-26T08:18:49.374Z,1006.21
2016-08-26T08:19:49.401Z,1006.18
2016-08-26T08:20:49.429Z,1006.17
2016-08-26T08:21:49.457Z,1006.2
2016-08-26T08:22:49.485Z,1006.17
2016-08-26T08:23:49.512Z,1006.2
2016-08-26T08:24:49.539Z,1006.22
2016-08-26T08:25:49.567Z,1006.19
2016-08-26T08:26:49.592Z,1006.21
2016-08-26T08:27:49.623Z,1006.25
2016-08-26T08:28:49.650Z,1006.23
2016-08-26T08:29:49.675Z,1006.24
2016-08-26T08:30:49.906Z,1006.19
2016-08-26T08:31:49.730Z,1006.2
2016-08-26T08:32:49.757Z,1006.22
2016-08-26T08:33:49.786Z,1006.18
2016-08-26T08:34:49.817Z,1006.23
2016-08-26T08:35:49.846Z,1006.2
2016-08-26T08:36:49.868Z,1006.22
2016-08-26T08:37:49.896Z,1006.14
2016-08-26T08:38:49.923Z,1006.17
2016-08-26T08:39:49.951Z,1006.14
2016-08-26T08:40:49.978Z,1006.2
2016-08-26T08:41:50.007Z,1006.15
2016-08-26T08:42:50.034Z,1006.13
2016-08-26T08:43:50.067Z,1006.12
2016-08-26T08:44:50.089Z,1006.15
2016-08-26T08:45:50.123Z,1006.16
2016-08-26T08:46:50.145Z,1006.18
2016-08-26T08:47:50.172Z,1006.21
2016-08-26T08:48:50.200Z,1006.18
2016-08-26T08:49:50.244Z,1006.17
2016-08-26T08:50:50.459Z,1006.16
2016-08-26T08:51:50.285Z,1006.19
2016-08-26T08:52:50.314Z,1006.22
2016-08-26T08:53:50.341Z,1006.19
2016-08-26T08:54:50.377Z,1006.18
2016-08-26T08:55:50.399Z,1006.2
2016-08-26T08:56:50.427Z,1006.16
2016-08-26T08:57:50.454Z,1006.21
2016-08-26T08:58:50.483Z,1006.19
2016-08-26T08:59:50.512Z,1006.22
2016-08-26T09:00:50.541Z,1006.21
2016-08-26T09:01:50.569Z,1006.27
2016-08-26T09:02:50.597Z,1006.21
2016-08-26T09:03:50.626Z,1006.24
2016-08-26T09:04:50.654Z,1006.24
2016-08-26T09:05:50.683Z,1006.21
2016-08-26T09:06:50.711Z,1006.21
2016-08-26T09:07:50.741Z,1006.22
2016-08-26T09:08:50.768Z,1006.2
2016-08-26T09:09:50.797Z,1006.19
2016-08-26T09:10:50.827Z,1006.19
2016-08-26T09:11:50.857Z,1006.2
2016-08-26T09:12:50.885Z,1006.23
2016-08-26T09:13:50.914Z,1006.22
2016-08-26T09:14:50.943Z,1006.18
2016-08-26T09:15:50.971Z,1006.24
2016-08-26T09:16:51.001Z,1006.22
2016-08-26T09:17:51.030Z,1006.21
2016-08-26T09:18:51.059Z,1006.2
2016-08-26T09:19:51.088Z,1006.23
2016-08-26T09:20:51.118Z,1006.21
2016-08-26T09:21:51.146Z,1006.2
2016-08-26T09:22:51.176Z,1006.21
2016-08-26T09:23:51.215Z,1006.19
2016-08-26T09:24:51.234Z,1006.23
2016-08-26T09:25:51.264Z,1006.2
2016-08-26T09:26:51.293Z,1006.14
2016-08-26T09:27:51.321Z,1006.13
2016-08-26T09:28:51.353Z,1006.16
2016-08-26T09:29:51.382Z,1006.17
2016-08-26T09:30:51.461Z,1006.16
2016-08-26T09:31:51.442Z,1006.15
2016-08-26T09:32:51.471Z,1006.15
2016-08-26T09:33:51.501Z,1006.17
2016-08-26T09:34:51.530Z,1006.19
2016-08-26T09:35:51.561Z,1006.14
2016-08-26T09:36:51.590Z,1006.17
2016-08-26T09:37:51.619Z,1006.15
2016-08-26T09:38:51.650Z,1006.13
2016-08-26T09:39:51.679Z,1006.11
2016-08-26T09:40:51.711Z,1006.12
2016-08-26T09:41:51.739Z,1006.07
2016-08-26T09:42:51.769Z,1006.03
2016-08-26T09:43:51.801Z,1006.02
2016-08-26T09:44:51.831Z,1006.03
2016-08-26T09:45:51.860Z,1006.03
2016-08-26T09:46:51.889Z,1006.04
2016-08-26T09:47:51.920Z,1006
2016-08-26T09:48:51.950Z,1006.03
2016-08-26T09:49:51.982Z,1006.02
2016-08-26T09:50:52.011Z,1006.04
2016-08-26T09:51:52.042Z,1006.02
2016-08-26T09:52:52.071Z,1005.99
2016-08-26T09:53:52.103Z,1005.97
2016-08-26T09:54:52.134Z,1006.04
2016-08-26T09:55:52.165Z,1006
2016-08-26T09:56:52.195Z,1006
2016-08-26T09:57:52.226Z,1005.95
2016-08-26T09:58:52.257Z,1005.92
2016-08-26T09:59:52.288Z,1005.91
2016-08-26T10:00:52.319Z,1005.99
2016-08-26T10:01:52.349Z,1005.98
2016-08-26T10:02:52.380Z,1005.94
2016-08-26T10:03:52.411Z,1005.95
2016-08-26T10:04:52.442Z,1005.94
2016-08-26T10:05:52.473Z,1005.93
2016-08-26T10:06:52.510Z,1005.96
2016-08-26T10:07:52.534Z,1005.96
2016-08-26T10:08:52.567Z,1005.93
2016-08-26T10:09:52.598Z,1005.94
2016-08-26T10:10:52.628Z,1005.93
2016-08-26T10:11:52.863Z,1005.98
2016-08-26T10:12:52.691Z,1005.96
2016-08-26T10:13:52.722Z,1005.94
2016-08-26T10:14:52.753Z,1005.93
2016-08-26T10:15:52.784Z,1005.93
2016-08-26T10:16:52.815Z,1005.93
2016-08-26T10:17:52.848Z,1005.92
2016-08-26T10:18:52.879Z,1005.99
2016-08-26T10:19:52.910Z,1005.97
2016-08-26T10:20:52.943Z,1005.93
2016-08-26T10:21:52.973Z,1005.93
2016-08-26T10:22:53.005Z,1005.89
2016-08-26T10:23:53.038Z,1005.93
2016-08-26T10:24:53.070Z,1005.92
2016-08-26T10:25:53.101Z,1005.91
2016-08-26T10:26:53.150Z,1005.87
2016-08-26T10:27:53.164Z,1005.91
2016-08-26T10:28:53.196Z,1005.93
2016-08-26T10:29:53.235Z,1005.91
2016-08-26T10:30:53.261Z,1005.95
2016-08-26T10:31:53.294Z,1005.92
2016-08-26T10:32:53.324Z,1005.89
2016-08-26T10:33:53.356Z,1005.94
2016-08-26T10:34:53.388Z,1005.86
2016-08-26T10:35:53.428Z,1005.88
2016-08-26T10:36:53.453Z,1005.87
2016-08-26T10:37:53.485Z,1005.84
2016-08-26T10:38:53.518Z,1005.84
2016-08-26T10:39:53.555Z,1005.86
2016-08-26T10:40:53.581Z,1005.84
2016-08-26T10:41:53.615Z,1005.82
2016-08-26T10:42:53.651Z,1005.79
2016-08-26T10:43:53.678Z,1005.79
2016-08-26T10:44:53.712Z,1005.82
2016-08-26T10:45:53.744Z,1005.81
2016-08-26T10:46:53.778Z,1005.81
2016-08-26T10:47:53.809Z,1005.79
2016-08-26T10:48:53.844Z,1005.74
2016-08-26T10:49:53.875Z,1005.76
2016-08-26T10:50:53.907Z,1005.72
2016-08-26T10:51:53.939Z,1005.72
2016-08-26T10:52:53.974Z,1005.69
2016-08-26T10:53:54.006Z,1005.76
2016-08-26T10:54:54.039Z,1005.77
2016-08-26T10:55:54.073Z,1005.73
2016-08-26T10:56:54.105Z,1005.75
2016-08-26T10:57:54.138Z,1005.71
2016-08-26T10:58:54.170Z,1005.74
2016-08-26T10:59:54.204Z,1005.69
2016-08-26T11:00:54.237Z,1005.72
2016-08-26T11:01:54.270Z,1005.69
2016-08-26T11:02:54.303Z,1005.71
2016-08-26T11:03:54.337Z,1005.68
2016-08-26T11:04:54.370Z,1005.69
2016-08-26T11:05:54.402Z,1005.67
2016-08-26T11:06:54.436Z,1005.66
2016-08-26T11:07:54.470Z,1005.68
2016-08-26T11:08:54.503Z,1005.64
2016-08-26T11:09:54.537Z,1005.69
2016-08-26T11:10:54.571Z,1005.67
2016-08-26T11:11:54.604Z,1005.68
2016-08-26T11:12:54.637Z,1005.65
2016-08-26T11:13:54.671Z,1005.65
2016-08-26T11:14:54.704Z,1005.62
2016-08-26T11:15:54.742Z,1005.63
2016-08-26T11:16:54.770Z,1005.65
2016-08-26T11:17:54.804Z,1005.61
2016-08-26T11:18:54.839Z,1005.56
2016-08-26T11:19:54.873Z,1005.64
2016-08-26T11:20:54.905Z,1005.6
2016-08-26T11:21:54.939Z,1005.63
2016-08-26T11:22:54.974Z,1005.64
2016-08-26T11:23:55.007Z,1005.62
2016-08-26T11:24:55.128Z,1005.63
2016-08-26T11:25:55.075Z,1005.64
2016-08-26T11:26:55.110Z,1005.69
2016-08-26T11:27:55.143Z,1005.68
2016-08-26T11:28:55.178Z,1005.72
2016-08-26T11:29:55.211Z,1005.68
2016-08-26T11:30:55.246Z,1005.67
2016-08-26T11:31:55.280Z,1005.69
2016-08-26T11:32:55.314Z,1005.73
2016-08-26T11:33:55.350Z,1005.71
2016-08-26T11:34:55.382Z,1005.71
2016-08-26T11:35:55.619Z,1005.7
2016-08-26T11:36:55.452Z,1005.67
2016-08-26T11:37:55.486Z,1005.66
2016-08-26T11:38:55.519Z,1005.66
2016-08-26T11:39:55.555Z,1005.65
2016-08-26T11:40:55.589Z,1005.66
2016-08-26T11:41:55.622Z,1005.66
2016-08-26T11:42:55.659Z,1005.6
2016-08-26T11:43:55.692Z,1005.64
2016-08-26T11:44:55.731Z,1005.64
2016-08-26T11:45:55.760Z,1005.62
2016-08-26T11:46:55.795Z,1005.61
2016-08-26T11:47:55.830Z,1005.6
2016-08-26T11:48:55.864Z,1005.57
2016-08-26T11:49:55.899Z,1005.61
2016-08-26T11:50:55.933Z,1005.59
2016-08-26T11:51:55.969Z,1005.62
2016-08-26T11:52:56.007Z,1005.6
2016-08-26T11:53:56.039Z,1005.57
2016-08-26T11:54:56.073Z,1005.6
2016-08-26T11:55:56.108Z,1005.62
2016-08-26T11:56:56.142Z,1005.63
2016-08-26T11:57:56.178Z,1005.65
2016-08-26T11:58:56.212Z,1005.63
2016-08-26T11:59:56.248Z,1005.6
2016-08-26T12:00:56.494Z,1005.57
2016-08-26T12:01:56.331Z,1005.57
2016-08-26T12:02:56.352Z,1005.57
2016-08-26T12:03:56.509Z,1005.56
2016-08-26T12:04:56.533Z,1005.56
2016-08-26T12:05:56.529Z,1005.55
2016-08-26T12:06:56.540Z,1005.57
2016-08-26T12:07:56.546Z,1005.53
2016-08-26T12:08:56.562Z,1005.54